createdAt,value
2023-05-14T00:01:05.385Z,101775.66
2023-05-14T00:03:32.827Z,101781.41
2023-05-14T00:06:00.243Z,101776.34
2023-05-14T00:08:27.628Z,101776.34
2023-05-14T00:10:55.129Z,101782.44
2023-05-14T00:13:23.415Z,101779.22
2023-05-14T00:15:50.926Z,101773.66
2023-05-14T00:18:18.374Z,101776.19
2023-05-14T00:20:45.938Z,101776.88
2023-05-14T00:23:13.435Z,101775.34
2023-05-14T00:25:40.872Z,101777.72
2023-05-14T00:28:08.266Z,101776.34
2023-05-14T00:30:35.966Z,101778.69
2023-05-14T00:33:04.075Z,101771.97
2023-05-14T00:35:31.541Z,101768.75
2023-05-14T00:37:58.916Z,101775.50
2023-05-14T00:40:27.628Z,101766.59
2023-05-14T00:42:56.315Z,101768.38
2023-05-14T00:45:23.756Z,101770.06
2023-05-14T00:47:51.843Z,101771.22
2023-05-14T00:50:20.087Z,101769.53
2023-05-14T00:52:47.918Z,101767.53
2023-05-14T00:55:16.798Z,101772.38
2023-05-14T00:57:44.654Z,101773.22
2023-05-14T01:00:12.428Z,101773.72
2023-05-14T01:02:40.015Z,101776.56
2023-05-14T01:05:08.402Z,101777.72
2023-05-14T01:07:53.962Z,101772.50
2023-05-14T01:10:43.535Z,101771.50
2023-05-14T01:13:10.914Z,101774.16
2023-05-14T01:15:41.476Z,101771.94
2023-05-14T01:18:11.162Z,101774.84
2023-05-14T01:20:38.920Z,101783.94
2023-05-14T01:23:06.261Z,101780.56
2023-05-14T01:25:35.479Z,101780.25
2023-05-14T01:28:20.039Z,101781.41
2023-05-14T01:30:58.972Z,101779.06
2023-05-14T01:33:29.528Z,101772.47
2023-05-14T01:35:58.600Z,101776.47
2023-05-14T01:38:30.405Z,101782.84
2023-05-14T01:41:00.186Z,101791.25
2023-05-14T01:43:27.875Z,101783.53
2023-05-14T01:45:55.808Z,101781.06
2023-05-14T01:48:23.578Z,101784.44
2023-05-14T01:50:50.868Z,101786.75
2023-05-14T01:53:18.609Z,101799.28
2023-05-14T01:55:46.000Z,101796.25
2023-05-14T01:58:13.411Z,101795.75
2023-05-14T02:00:40.758Z,101796.38
2023-05-14T02:03:08.129Z,101797.91
2023-05-14T02:05:35.680Z,101796.22
2023-05-14T02:08:03.014Z,101803.28
2023-05-14T02:10:31.135Z,101801.53
2023-05-14T02:12:58.766Z,101800.16
2023-05-14T02:15:26.138Z,101801.75
2023-05-14T02:17:53.654Z,101803.53
2023-05-14T02:20:21.237Z,101794.16
2023-05-14T02:22:48.737Z,101794.63
2023-05-14T02:25:16.273Z,101801.53
2023-05-14T02:27:43.731Z,101798.16
2023-05-14T02:30:11.821Z,101800.47
2023-05-14T02:32:40.291Z,101799.16
2023-05-14T02:35:08.236Z,101798.16
2023-05-14T02:37:36.442Z,101800.59
2023-05-14T02:40:04.577Z,101807.03
2023-05-14T02:42:32.280Z,101789.88
2023-05-14T02:44:59.853Z,101795.22
2023-05-14T02:47:27.362Z,101800.97
2023-05-14T02:49:54.741Z,101804.81
2023-05-14T02:52:22.813Z,101803.66
2023-05-14T02:54:50.551Z,101795.91
2023-05-14T02:57:17.864Z,101802.91
2023-05-14T02:59:45.412Z,101798.59
2023-05-14T03:02:14.337Z,101805.31
2023-05-14T03:04:42.275Z,101801.97
2023-05-14T03:07:09.797Z,101808.72
2023-05-14T03:09:38.436Z,101806.09
2023-05-14T03:12:07.057Z,101802.72
2023-05-14T03:14:34.452Z,101808.81
2023-05-14T03:17:01.989Z,101807.81
2023-05-14T03:19:29.577Z,101810.56
2023-05-14T03:21:57.283Z,101811.25
2023-05-14T03:24:25.708Z,101806.09
2023-05-14T03:26:53.572Z,101810.13
2023-05-14T03:29:20.984Z,101816.56
2023-05-14T03:31:48.504Z,101819.13
2023-05-14T03:34:15.998Z,101818.81
2023-05-14T03:36:43.372Z,101821.53
2023-05-14T03:39:10.757Z,101822.56
2023-05-14T03:41:38.366Z,101819.91
2023-05-14T03:44:06.487Z,101822.09
2023-05-14T03:46:33.840Z,101823.63
2023-05-14T03:49:01.420Z,101828.72
2023-05-14T03:51:29.252Z,101831.28
2023-05-14T03:53:58.085Z,101833.13
2023-05-14T03:56:26.269Z,101827.75
2023-05-14T03:58:53.709Z,101836.84
2023-05-14T04:06:25.788Z,101834.50
2023-05-14T04:08:53.837Z,101834.63
2023-05-14T04:11:21.690Z,101832.81
2023-05-14T04:13:49.088Z,101840.53
2023-05-14T04:16:16.645Z,101835.28
2023-05-14T04:18:46.006Z,101832.88
2023-05-14T04:21:13.459Z,101836.91
2023-05-14T04:23:41.112Z,101838.06
2023-05-14T04:26:08.643Z,101833.00
2023-05-14T04:28:36.480Z,101837.03
2023-05-14T04:31:03.968Z,101833.81
2023-05-14T04:33:31.340Z,101833.59
2023-05-14T04:35:58.886Z,101834.22
2023-05-14T04:38:26.814Z,101834.38
2023-05-14T04:40:54.230Z,101841.13
2023-05-14T04:43:21.617Z,101838.09
2023-05-14T04:45:49.100Z,101840.59
2023-05-14T04:48:17.322Z,101838.50
2023-05-14T04:50:44.674Z,101845.91
2023-05-14T04:53:12.486Z,101850.72
2023-05-14T04:55:39.864Z,101843.19
2023-05-14T04:58:07.371Z,101846.81
2023-05-14T05:00:35.058Z,101849.16
2023-05-14T05:03:04.511Z,101848.16
2023-05-14T05:05:32.142Z,101850.81
2023-05-14T05:07:59.529Z,101844.84
2023-05-14T05:10:27.034Z,101847.84
2023-05-14T05:12:54.557Z,101848.59
2023-05-14T05:15:21.927Z,101843.47
2023-05-14T05:17:49.512Z,101851.50
2023-05-14T05:20:16.996Z,101848.78
2023-05-14T05:22:44.498Z,101846.28
2023-05-14T05:25:13.019Z,101850.19
2023-05-14T05:27:40.584Z,101851.56
2023-05-14T05:30:10.234Z,101844.09
2023-05-14T05:32:38.092Z,101852.22
2023-05-14T05:35:05.857Z,101849.03
2023-05-14T05:37:33.271Z,101850.34
2023-05-14T05:40:00.764Z,101856.19
2023-05-14T05:42:28.208Z,101849.03
2023-05-14T05:44:56.347Z,101842.50
2023-05-14T05:47:23.765Z,101840.75
2023-05-14T05:49:51.409Z,101846.31
2023-05-14T05:52:18.807Z,101839.59
2023-05-14T05:54:46.178Z,101841.44
2023-05-14T05:57:13.783Z,101839.78
2023-05-14T05:59:41.126Z,101836.59
2023-05-14T06:02:08.576Z,101837.09
2023-05-14T06:04:36.160Z,101832.59
2023-05-14T06:07:03.837Z,101830.59
2023-05-14T06:09:31.220Z,101835.25
2023-05-14T06:11:59.001Z,101825.81
2023-05-14T06:14:26.436Z,101832.38
2023-05-14T06:16:53.937Z,101832.22
2023-05-14T06:19:21.913Z,101832.84
2023-05-14T06:21:49.218Z,101827.19
2023-05-14T06:24:16.672Z,101825.66
2023-05-14T06:26:44.318Z,101815.19
2023-05-14T06:29:11.884Z,101816.19
2023-05-14T06:31:39.305Z,101817.00
2023-05-14T06:34:06.733Z,101820.09
2023-05-14T06:36:34.063Z,101812.47
2023-05-14T06:39:01.452Z,101805.69
2023-05-14T06:41:29.675Z,101811.56
2023-05-14T06:43:56.971Z,101820.78
2023-05-14T06:46:24.340Z,101819.44
2023-05-14T06:48:51.723Z,101820.47
2023-05-14T06:51:19.170Z,101810.31
2023-05-14T06:53:48.902Z,101810.69
2023-05-14T06:56:16.325Z,101811.75
2023-05-14T06:58:43.728Z,101819.56
2023-05-14T07:01:11.444Z,101806.84
2023-05-14T07:03:39.290Z,101806.31
2023-05-14T07:06:07.004Z,101809.72
2023-05-14T07:08:36.163Z,101812.44
2023-05-14T07:11:03.657Z,101815.97
2023-05-14T07:13:31.137Z,101803.91
2023-05-14T07:15:58.459Z,101807.06
2023-05-14T07:18:26.267Z,101803.22
2023-05-14T07:20:53.587Z,101800.13
2023-05-14T07:23:21.155Z,101805.50
2023-05-14T07:25:48.574Z,101810.78
2023-05-14T07:28:17.058Z,101804.28
2023-05-14T07:30:45.253Z,101804.78
2023-05-14T07:33:12.698Z,101802.03
2023-05-14T07:35:40.106Z,101804.78
2023-05-14T07:38:07.443Z,101806.94
2023-05-14T07:40:35.036Z,101806.81
2023-05-14T07:43:02.358Z,101794.41
2023-05-14T07:45:29.944Z,101795.31
2023-05-14T07:47:57.402Z,101801.53
2023-05-14T07:50:25.239Z,101794.00
2023-05-14T07:52:52.745Z,101798.16
2023-05-14T07:55:20.201Z,101794.88
2023-05-14T07:57:47.835Z,101790.03
2023-05-14T08:00:16.886Z,101788.03
2023-05-14T08:02:44.936Z,101788.84
2023-05-14T08:05:12.475Z,101796.44
2023-05-14T08:07:41.857Z,101794.97
2023-05-14T08:10:09.843Z,101793.03
2023-05-14T08:12:37.288Z,101791.75
2023-05-14T08:15:07.751Z,101789.00
2023-05-14T08:17:35.801Z,101784.50
2023-05-14T08:20:03.398Z,101794.25
2023-05-14T08:22:31.124Z,101786.69
2023-05-14T08:24:58.588Z,101787.84
2023-05-14T08:27:26.433Z,101795.25
2023-05-14T08:29:53.806Z,101784.25
2023-05-14T08:32:23.869Z,101787.13
2023-05-14T08:34:52.527Z,101781.50
2023-05-14T08:37:20.135Z,101783.38
2023-05-14T08:39:47.626Z,101782.66
2023-05-14T08:42:18.219Z,101777.75
2023-05-14T08:44:53.102Z,101774.97
2023-05-14T08:47:24.010Z,101774.81
2023-05-14T08:50:04.577Z,101772.31
2023-05-14T08:52:33.801Z,101768.22
2023-05-14T08:55:04.281Z,101764.97
2023-05-14T08:57:33.451Z,101761.31
2023-05-14T09:00:02.351Z,101764.38
2023-05-14T09:02:31.807Z,101753.19
2023-05-14T09:05:00.948Z,101762.22
2023-05-14T09:07:28.889Z,101753.63
2023-05-14T09:09:56.270Z,101750.31
2023-05-14T09:12:23.742Z,101749.06
2023-05-14T09:14:51.563Z,101747.22
2023-05-14T09:17:19.684Z,101737.91
2023-05-14T09:19:49.308Z,101738.00
2023-05-14T09:22:18.377Z,101745.94
2023-05-14T09:24:46.303Z,101737.38
2023-05-14T09:27:22.577Z,101735.81
2023-05-14T09:29:49.909Z,101733.41
2023-05-14T09:32:18.204Z,101732.09
2023-05-14T09:34:45.627Z,101730.53
2023-05-14T09:37:12.917Z,101734.00
2023-05-14T09:39:40.581Z,101722.31
2023-05-14T09:42:08.488Z,101729.28
2023-05-14T09:44:38.071Z,101710.97
2023-05-14T09:47:06.255Z,101715.97
2023-05-14T09:49:34.189Z,101703.81
2023-05-14T09:52:03.693Z,101713.91
2023-05-14T09:54:33.352Z,101699.56
2023-05-14T09:57:00.717Z,101704.03
2023-05-14T09:59:28.165Z,101695.06
2023-05-14T10:01:56.208Z,101702.38
2023-05-14T10:04:24.474Z,101693.97
2023-05-14T10:06:54.598Z,101692.47
2023-05-14T10:09:26.374Z,101683.41
2023-05-14T10:11:59.295Z,101690.88
2023-05-14T10:14:32.777Z,101687.50
2023-05-14T10:17:01.977Z,101683.34
2023-05-14T10:19:35.124Z,101677.72
2023-05-14T10:22:09.490Z,101676.31
2023-05-14T10:24:39.167Z,101671.28
2023-05-14T10:27:07.111Z,101673.47
2023-05-14T10:29:35.975Z,101673.22
2023-05-14T10:32:09.697Z,101661.72
2023-05-14T10:34:46.682Z,101669.56
2023-05-14T10:37:27.855Z,101671.50
2023-05-14T10:40:07.462Z,101666.56
2023-05-14T10:42:40.702Z,101669.63
2023-05-14T10:45:13.505Z,101668.00
2023-05-14T10:47:46.359Z,101672.13
2023-05-14T10:50:17.782Z,101664.09
2023-05-14T10:52:46.277Z,101659.69
2023-05-14T10:55:15.250Z,101654.72
2023-05-14T10:57:45.655Z,101655.28
2023-05-14T11:00:15.156Z,101661.91
2023-05-14T11:02:44.840Z,101662.69
2023-05-14T11:05:16.983Z,101656.03
2023-05-14T11:07:48.820Z,101658.34
2023-05-14T11:10:19.142Z,101649.66
2023-05-14T11:12:48.758Z,101651.88
2023-05-14T11:15:18.565Z,101656.81
2023-05-14T11:17:47.535Z,101647.34
2023-05-14T11:20:16.767Z,101640.63
2023-05-14T11:22:45.998Z,101634.66
2023-05-14T11:25:15.024Z,101642.06
2023-05-14T11:27:47.613Z,101639.44
2023-05-14T11:30:19.796Z,101635.75
2023-05-14T11:32:49.438Z,101643.09
2023-05-14T11:35:17.880Z,101642.44
2023-05-14T11:37:54.140Z,101634.47
2023-05-14T11:40:21.881Z,101630.13
2023-05-14T11:42:53.500Z,101635.19
2023-05-14T11:45:27.717Z,101622.69
2023-05-14T11:47:55.391Z,101624.16
2023-05-14T11:50:23.564Z,101621.94
2023-05-14T11:52:51.348Z,101616.97
2023-05-14T11:55:18.790Z,101618.00
2023-05-14T11:57:46.421Z,101621.56
2023-05-14T12:00:16.915Z,101627.72
2023-05-14T12:02:44.557Z,101627.19
2023-05-14T12:05:13.583Z,101628.88
2023-05-14T12:07:45.079Z,101618.59
2023-05-14T12:10:13.885Z,101612.78
2023-05-14T12:12:47.236Z,101625.91
2023-05-14T12:15:16.441Z,101622.63
2023-05-14T12:17:50.577Z,101613.75
2023-05-14T12:20:18.480Z,101605.47
2023-05-14T12:22:46.016Z,101609.38
2023-05-14T12:25:13.892Z,101598.22
2023-05-14T12:27:44.839Z,101598.25
2023-05-14T12:30:21.359Z,101594.81
2023-05-14T12:32:52.112Z,101593.25
2023-05-14T12:35:22.751Z,101592.69
2023-05-14T12:37:50.439Z,101594.44
2023-05-14T12:40:18.039Z,101595.34
2023-05-14T12:42:45.846Z,101591.75
2023-05-14T12:45:13.412Z,101580.50
2023-05-14T12:47:40.848Z,101582.81
2023-05-14T12:50:09.136Z,101583.09
2023-05-14T12:52:39.655Z,101585.56
2023-05-14T12:55:10.528Z,101579.44
2023-05-14T12:57:39.327Z,101577.69
2023-05-14T13:00:09.888Z,101577.53
2023-05-14T13:02:42.659Z,101570.00
2023-05-14T13:05:12.151Z,101582.16
2023-05-14T13:07:39.700Z,101579.03
2023-05-14T13:10:08.293Z,101586.94
2023-05-14T13:12:36.152Z,101584.63
2023-05-14T13:15:03.824Z,101585.03
2023-05-14T13:17:31.620Z,101590.75
2023-05-14T13:19:58.993Z,101584.13
2023-05-14T13:22:26.418Z,101595.16
2023-05-14T13:24:53.835Z,101582.56
2023-05-14T13:27:21.288Z,101588.94
2023-05-14T13:29:48.843Z,101584.88
2023-05-14T13:36:06.172Z,101600.50
2023-05-14T13:38:34.384Z,101598.31
2023-05-14T13:41:02.840Z,101602.50
2023-05-14T13:43:34.750Z,101611.44
2023-05-14T13:46:04.086Z,101622.25
2023-05-14T13:48:31.858Z,101641.63
2023-05-14T13:50:59.643Z,101638.41
2023-05-14T13:53:27.318Z,101644.41
2023-05-14T13:55:58.573Z,101646.47
2023-05-14T13:58:26.733Z,101633.97
2023-05-14T14:00:54.331Z,101635.50
2023-05-14T14:03:21.887Z,101640.44
2023-05-14T14:05:49.365Z,101637.25
2023-05-14T14:08:23.931Z,101641.09
2023-05-14T14:10:54.587Z,101626.75
2023-05-14T14:13:23.037Z,101630.81
2023-05-14T14:15:51.311Z,101632.38
2023-05-14T14:18:18.947Z,101627.75
2023-05-14T14:20:46.518Z,101629.94
2023-05-14T14:23:14.083Z,101627.38
2023-05-14T14:25:41.514Z,101630.28
2023-05-14T14:28:08.918Z,101625.00
2023-05-14T14:30:36.374Z,101624.44
2023-05-14T14:33:04.550Z,101627.09
2023-05-14T14:35:33.481Z,101624.34
2023-05-14T14:38:01.104Z,101616.91
2023-05-14T14:40:29.826Z,101614.66
2023-05-14T14:42:57.269Z,101619.19
2023-05-14T14:45:24.941Z,101621.06
2023-05-14T14:47:52.480Z,101617.97
2023-05-14T14:50:19.993Z,101609.72
2023-05-14T14:52:48.138Z,101615.22
2023-05-14T14:55:15.549Z,101611.50
2023-05-14T14:57:43.292Z,101609.84
2023-05-14T15:00:11.771Z,101602.16
2023-05-14T15:02:42.674Z,101601.47
2023-05-14T15:05:10.239Z,101602.03
2023-05-14T15:07:37.859Z,101606.38
2023-05-14T15:10:05.949Z,101599.78
2023-05-14T15:12:33.489Z,101603.03
2023-05-14T15:15:01.048Z,101590.91
2023-05-14T15:17:28.403Z,101594.09
2023-05-14T15:19:55.730Z,101589.53
2023-05-14T15:22:23.078Z,101597.31
2023-05-14T15:24:50.508Z,101593.34
2023-05-14T15:27:18.043Z,101601.28
2023-05-14T15:29:45.597Z,101607.28
2023-05-14T15:32:12.997Z,101608.13
2023-05-14T15:34:40.676Z,101603.03
2023-05-14T15:37:08.025Z,101608.91
2023-05-14T15:39:35.537Z,101605.09
2023-05-14T15:42:03.730Z,101604.50
2023-05-14T15:44:31.644Z,101602.38
2023-05-14T15:46:58.954Z,101606.56
2023-05-14T15:49:26.323Z,101607.44
2023-05-14T15:51:54.530Z,101602.78
2023-05-14T15:54:22.025Z,101602.06
2023-05-14T15:56:49.661Z,101595.81
2023-05-14T15:59:17.741Z,101594.84
2023-05-14T16:01:45.190Z,101594.56
2023-05-14T16:04:12.819Z,101595.31
2023-05-14T16:06:42.038Z,101595.72
2023-05-14T16:09:09.668Z,101597.13
2023-05-14T16:11:37.087Z,101603.69
2023-05-14T16:14:04.874Z,101597.72
2023-05-14T16:16:32.513Z,101600.13
2023-05-14T16:19:00.006Z,101592.97
2023-05-14T16:21:27.438Z,101600.84
2023-05-14T16:23:54.856Z,101601.47
2023-05-14T16:26:22.884Z,101598.59
2023-05-14T16:28:50.295Z,101604.06
2023-05-14T16:31:17.707Z,101604.53
2023-05-14T16:33:45.139Z,101606.22
2023-05-14T16:36:12.507Z,101606.69
2023-05-14T16:38:52.318Z,101606.06
2023-05-14T16:41:24.627Z,101603.06
2023-05-14T16:43:52.516Z,101606.63
2023-05-14T16:46:20.394Z,101603.66
2023-05-14T16:48:47.854Z,101610.63
2023-05-14T16:51:15.191Z,101608.34
2023-05-14T16:53:42.668Z,101610.44
2023-05-14T16:56:10.068Z,101610.66
2023-05-14T16:58:37.413Z,101611.94
2023-05-14T17:01:06.343Z,101619.69
2023-05-14T17:03:34.942Z,101623.19
2023-05-14T17:06:02.565Z,101613.84
2023-05-14T17:08:33.548Z,101624.56
2023-05-14T17:11:02.263Z,101622.59
2023-05-14T17:13:29.954Z,101626.53
2023-05-14T17:15:57.456Z,101626.16
2023-05-14T17:18:24.806Z,101634.56
2023-05-14T17:20:52.243Z,101627.97
2023-05-14T17:23:20.438Z,101627.69
2023-05-14T17:25:48.488Z,101638.13
2023-05-14T17:28:15.938Z,101629.03
2023-05-14T17:30:43.921Z,101633.59
2023-05-14T17:33:11.858Z,101641.41
2023-05-14T17:35:39.573Z,101632.25
2023-05-14T17:38:07.064Z,101648.75
2023-05-14T17:40:34.762Z,101638.25
2023-05-14T17:43:02.149Z,101646.34
2023-05-14T17:45:39.337Z,101638.41
2023-05-14T17:48:07.230Z,101636.53
2023-05-14T17:50:35.208Z,101644.38
2023-05-14T17:53:02.573Z,101639.78
2023-05-14T17:55:30.076Z,101647.16
2023-05-14T17:57:57.574Z,101646.59
2023-05-14T18:00:24.988Z,101649.31
2023-05-14T18:02:52.454Z,101655.41
2023-05-14T18:05:20.873Z,101667.63
2023-05-14T18:07:48.733Z,101658.81
2023-05-14T18:10:16.255Z,101653.41
2023-05-14T18:12:43.942Z,101652.72
2023-05-14T18:15:11.269Z,101654.44
2023-05-14T18:17:39.376Z,101650.91
2023-05-14T18:20:07.979Z,101654.03
2023-05-14T18:22:35.910Z,101650.06
2023-05-14T18:25:03.850Z,101656.75
2023-05-14T18:27:31.756Z,101654.66
2023-05-14T18:29:59.264Z,101651.94
2023-05-14T18:32:26.644Z,101649.88
2023-05-14T18:34:54.072Z,101647.97
2023-05-14T18:37:21.475Z,101650.03
2023-05-14T18:39:48.986Z,101652.53
2023-05-14T18:42:16.997Z,101648.38
2023-05-14T18:44:45.114Z,101659.25
2023-05-14T18:47:12.556Z,101646.63
2023-05-14T18:49:40.397Z,101646.63
2023-05-14T18:52:08.059Z,101647.22
2023-05-14T18:54:35.532Z,101636.91
2023-05-14T18:57:03.076Z,101637.72
2023-05-14T18:59:31.050Z,101643.56
2023-05-14T19:01:58.551Z,101642.81
2023-05-14T19:04:26.591Z,101645.91
2023-05-14T19:06:54.093Z,101641.59
2023-05-14T19:09:21.744Z,101642.75
2023-05-14T19:11:49.713Z,101645.38
2023-05-14T19:14:17.718Z,101645.56
2023-05-14T19:16:45.134Z,101648.00
2023-05-14T19:19:13.063Z,101647.50
2023-05-14T19:21:42.394Z,101646.66
2023-05-14T19:24:14.353Z,101646.44
2023-05-14T19:26:44.629Z,101650.19
2023-05-14T19:29:12.056Z,101651.47
2023-05-14T19:31:41.650Z,101653.56
2023-05-14T19:34:09.332Z,101651.78
2023-05-14T19:36:39.269Z,101646.88
2023-05-14T19:39:06.637Z,101645.56
2023-05-14T19:41:35.387Z,101649.16
2023-05-14T19:44:03.671Z,101645.53
2023-05-14T19:46:31.777Z,101651.38
2023-05-14T19:48:59.408Z,101646.72
2023-05-14T19:51:26.886Z,101642.41
2023-05-14T19:53:54.698Z,101644.88
2023-05-14T19:56:23.541Z,101643.22
2023-05-14T19:58:52.270Z,101650.97
2023-05-14T20:01:21.111Z,101648.97
2023-05-14T20:03:48.734Z,101652.06
2023-05-14T20:06:17.580Z,101648.03
2023-05-14T20:08:48.099Z,101648.03
2023-05-14T20:11:18.098Z,101644.22
2023-05-14T20:13:45.765Z,101641.88
2023-05-14T20:16:16.864Z,101641.59
2023-05-14T20:18:45.046Z,101646.34
2023-05-14T20:21:12.658Z,101643.56
2023-05-14T20:23:40.967Z,101638.78
2023-05-14T20:26:08.502Z,101644.22
2023-05-14T20:28:36.121Z,101644.94
2023-05-14T20:31:04.204Z,101637.97
2023-05-14T20:33:32.082Z,101638.72
2023-05-14T20:35:59.595Z,101638.19
2023-05-14T20:38:29.547Z,101643.66
2023-05-14T20:40:57.417Z,101644.44
2023-05-14T20:43:27.027Z,101639.25
2023-05-14T20:45:54.502Z,101645.25
2023-05-14T20:48:22.179Z,101649.16
2023-05-14T20:50:49.613Z,101637.56
2023-05-14T20:53:16.997Z,101651.72
2023-05-14T20:55:44.908Z,101649.16
2023-05-14T20:58:12.278Z,101647.66
2023-05-14T21:00:39.696Z,101637.19
2023-05-14T21:03:07.402Z,101641.97
2023-05-14T21:05:35.222Z,101642.84
2023-05-14T21:08:02.590Z,101641.75
2023-05-14T21:10:30.081Z,101640.56
2023-05-14T21:12:57.718Z,101638.78
2023-05-14T21:15:27.068Z,101625.91
2023-05-14T21:17:54.958Z,101631.31
2023-05-14T21:20:22.348Z,101620.50
2023-05-14T21:22:49.715Z,101626.41
2023-05-14T21:25:17.428Z,101625.47
2023-05-14T21:27:44.800Z,101630.16
2023-05-14T21:30:12.896Z,101629.69
2023-05-14T21:32:40.674Z,101631.25
2023-05-14T21:35:08.457Z,101628.53
2023-05-14T21:37:36.034Z,101627.50
2023-05-14T21:40:03.508Z,101624.81
2023-05-14T21:42:31.159Z,101620.59
2023-05-14T21:44:58.506Z,101621.44
2023-05-14T21:47:27.111Z,101623.97
2023-05-14T21:49:54.659Z,101623.13
2023-05-14T21:52:22.041Z,101620.94
2023-05-14T21:54:49.563Z,101611.06
2023-05-14T21:57:17.200Z,101625.00
2023-05-14T21:59:44.508Z,101629.19
2023-05-14T22:02:11.861Z,101628.06
2023-05-14T22:04:39.499Z,101625.56
2023-05-14T22:07:06.831Z,101621.53
2023-05-14T22:09:34.235Z,101621.22
2023-05-14T22:12:01.571Z,101621.88
2023-05-14T22:14:29.534Z,101620.69
2023-05-14T22:16:57.241Z,101620.56
2023-05-14T22:19:25.816Z,101625.78
2023-05-14T22:21:53.248Z,101624.91
2023-05-14T22:24:20.979Z,101612.34
2023-05-14T22:26:48.386Z,101616.72
2023-05-14T22:29:15.729Z,101616.34
2023-05-14T22:31:43.211Z,101620.16
2023-05-14T22:34:10.775Z,101615.19
2023-05-14T22:36:38.312Z,101602.81
2023-05-14T22:39:05.943Z,101608.56
2023-05-14T22:41:33.458Z,101604.00
2023-05-14T22:44:00.852Z,101608.88
2023-05-14T22:46:28.375Z,101598.97
2023-05-14T22:48:55.787Z,101592.47
2023-05-14T22:51:23.325Z,101598.34
2023-05-14T22:53:50.818Z,101592.53
2023-05-14T22:56:19.692Z,101585.56
2023-05-14T22:58:47.801Z,101586.97
2023-05-14T23:01:15.405Z,101581.00
2023-05-14T23:03:42.795Z,101578.75
2023-05-14T23:06:10.745Z,101578.75
2023-05-14T23:08:38.110Z,101586.56
2023-05-14T23:11:05.750Z,101573.91
2023-05-14T23:13:33.614Z,101575.63
2023-05-14T23:16:01.364Z,101575.91
2023-05-14T23:18:28.832Z,101578.59
2023-05-14T23:20:56.571Z,101583.97
2023-05-14T23:23:24.436Z,101574.03
2023-05-14T23:25:52.165Z,101566.69
2023-05-14T23:28:19.636Z,101565.41
2023-05-14T23:30:47.052Z,101566.63
2023-05-14T23:33:14.665Z,101569.16
2023-05-14T23:35:42.016Z,101572.66
2023-05-14T23:38:09.841Z,101577.22
2023-05-14T23:40:37.347Z,101573.56
2023-05-14T23:43:04.776Z,101572.28
2023-05-14T23:45:32.713Z,101571.16
2023-05-14T23:48:01.659Z,101571.22
2023-05-14T23:50:29.250Z,101573.28
2023-05-14T23:52:56.579Z,101583.91
2023-05-14T23:55:24.064Z,101574.66
2023-05-14T23:57:51.600Z,101568.25
